Terminal Aerodrome Forecast
Issued by NWS Mt. Holly, NJ

Home | Current Version | Previous Version | Text Only | Print | Product List | Glossary On
Versions: 1 2 3 4 5 6 7 8 9 10 11 12 13 14 15 16 17 18 19 20 21 22 23 24 25 26 27
000
FTUS41 KPHI 181400 AAA
TAFPHL
TAF AMD
KPHL 181454Z 1815/1918 09005KT P6SM SCT028 BKN250
      TEMPO 1815/1817 BKN028
     FM181800 13005KT P6SM FEW040 BKN250
     FM190300 20006KT P6SM BKN200
     FM190900 25003KT 6SM BR SCT060
     FM191200 36010KT P6SM SCT060=

USA.gov is the U.S. government's official web portal to all federal, state and local government web resources and services.